sensor_id;sensor_type;location;lat;lon;timestamp;pressure;altitude;pressure_sealevel;temperature;humidity
16834;BME280;8533;48.426;10.868;2023-07-30T00:01:07;95827.50;;;17.17;100.00
16834;BME280;8533;48.426;10.868;2023-07-30T00:03:32;95783.06;;;16.92;100.00
16834;BME280;8533;48.426;10.868;2023-07-30T00:05:57;95822.00;;;17.14;100.00
16834;BME280;8533;48.426;10.868;2023-07-30T00:08:23;95803.91;;;17.07;100.00
16834;BME280;8533;48.426;10.868;2023-07-30T00:10:48;95814.56;;;17.16;100.00
16834;BME280;8533;48.426;10.868;2023-07-30T00:13:14;95807.59;;;17.06;100.00
16834;BME280;8533;48.426;10.868;2023-07-30T00:15:39;95772.44;;;16.78;100.00
16834;BME280;8533;48.426;10.868;2023-07-30T00:18:05;95758.56;;;16.73;100.00
16834;BME280;8533;48.426;10.868;2023-07-30T00:20:30;95810.81;;;17.03;100.00
16834;BME280;8533;48.426;10.868;2023-07-30T00:22:56;95707.88;;;16.44;100.00
16834;BME280;8533;48.426;10.868;2023-07-30T00:25:21;95773.34;;;16.88;100.00
16834;BME280;8533;48.426;10.868;2023-07-30T00:27:46;95790.88;;;16.97;100.00
16834;BME280;8533;48.426;10.868;2023-07-30T00:30:11;95650.53;;;16.03;100.00
16834;BME280;8533;48.426;10.868;2023-07-30T00:32:37;95815.53;;;17.06;100.00
16834;BME280;8533;48.426;10.868;2023-07-30T00:35:06;95685.84;;;16.21;100.00
16834;BME280;8533;48.426;10.868;2023-07-30T00:37:31;95745.41;;;16.54;100.00
16834;BME280;8533;48.426;10.868;2023-07-30T00:39:57;95736.03;;;16.48;100.00
16834;BME280;8533;48.426;10.868;2023-07-30T00:42:22;95791.06;;;16.87;100.00
16834;BME280;8533;48.426;10.868;2023-07-30T00:44:47;95720.56;;;16.41;100.00
16834;BME280;8533;48.426;10.868;2023-07-30T00:47:13;95823.75;;;17.05;100.00
16834;BME280;8533;48.426;10.868;2023-07-30T00:49:38;95746.19;;;16.41;100.00
16834;BME280;8533;48.426;10.868;2023-07-30T00:52:04;95824.03;;;17.03;100.00
16834;BME280;8533;48.426;10.868;2023-07-30T00:54:30;95742.47;;;16.56;100.00
16834;BME280;8533;48.426;10.868;2023-07-30T00:56:55;95795.19;;;16.93;100.00
16834;BME280;8533;48.426;10.868;2023-07-30T00:59:21;95722.63;;;16.45;100.00
16834;BME280;8533;48.426;10.868;2023-07-30T01:01:47;95806.53;;;16.94;100.00
16834;BME280;8533;48.426;10.868;2023-07-30T01:04:16;95821.50;;;16.98;100.00
16834;BME280;8533;48.426;10.868;2023-07-30T01:06:42;95817.91;;;16.94;100.00
16834;BME280;8533;48.426;10.868;2023-07-30T01:09:08;95738.47;;;16.45;100.00
16834;BME280;8533;48.426;10.868;2023-07-30T01:11:35;95783.72;;;16.84;100.00
16834;BME280;8533;48.426;10.868;2023-07-30T01:14:01;95747.47;;;16.57;100.00
16834;BME280;8533;48.426;10.868;2023-07-30T01:16:27;95813.38;;;17.08;100.00
16834;BME280;8533;48.426;10.868;2023-07-30T01:18:52;95789.97;;;16.88;100.00
16834;BME280;8533;48.426;10.868;2023-07-30T01:21:17;95776.09;;;16.83;100.00
16834;BME280;8533;48.426;10.868;2023-07-30T01:23:42;95786.25;;;16.89;100.00
16834;BME280;8533;48.426;10.868;2023-07-30T01:26:19;95858.50;;;17.12;100.00
16834;BME280;8533;48.426;10.868;2023-07-30T01:28:49;95880.72;;;16.97;100.00
16834;BME280;8533;48.426;10.868;2023-07-30T01:31:17;95845.69;;;17.05;100.00
16834;BME280;8533;48.426;10.868;2023-07-30T01:33:47;95845.75;;;16.87;100.00
16834;BME280;8533;48.426;10.868;2023-07-30T01:36:15;95863.16;;;16.74;100.00
16834;BME280;8533;48.426;10.868;2023-07-30T01:38:42;95828.91;;;16.69;100.00
16834;BME280;8533;48.426;10.868;2023-07-30T01:41:08;95834.88;;;16.61;100.00
16834;BME280;8533;48.426;10.868;2023-07-30T01:43:34;95883.06;;;16.85;100.00
16834;BME280;8533;48.426;10.868;2023-07-30T01:45:59;95829.44;;;16.52;100.00
16834;BME280;8533;48.426;10.868;2023-07-30T01:48:24;95820.78;;;16.47;100.00
16834;BME280;8533;48.426;10.868;2023-07-30T01:50:50;95849.63;;;16.62;100.00
16834;BME280;8533;48.426;10.868;2023-07-30T01:53:15;95887.06;;;16.83;100.00
16834;BME280;8533;48.426;10.868;2023-07-30T01:55:40;95866.19;;;16.67;100.00
16834;BME280;8533;48.426;10.868;2023-07-30T01:58:09;95850.28;;;16.54;100.00
16834;BME280;8533;48.426;10.868;2023-07-30T02:00:35;95785.34;;;16.20;100.00
16834;BME280;8533;48.426;10.868;2023-07-30T02:03:00;95796.75;;;16.16;100.00
16834;BME280;8533;48.426;10.868;2023-07-30T02:05:25;95877.94;;;16.56;100.00
16834;BME280;8533;48.426;10.868;2023-07-30T02:07:51;95897.50;;;16.74;100.00
16834;BME280;8533;48.426;10.868;2023-07-30T02:10:16;95874.50;;;16.56;100.00
16834;BME280;8533;48.426;10.868;2023-07-30T02:12:41;95884.94;;;16.66;100.00
16834;BME280;8533;48.426;10.868;2023-07-30T02:15:07;95883.19;;;16.61;100.00
16834;BME280;8533;48.426;10.868;2023-07-30T02:17:32;95734.81;;;15.62;100.00
16834;BME280;8533;48.426;10.868;2023-07-30T02:19:57;95804.16;;;16.14;100.00
16834;BME280;8533;48.426;10.868;2023-07-30T02:22:23;95673.31;;;15.29;100.00
16834;BME280;8533;48.426;10.868;2023-07-30T02:24:48;95815.94;;;16.21;100.00
16834;BME280;8533;48.426;10.868;2023-07-30T02:27:13;95805.16;;;16.18;100.00
16834;BME280;8533;48.426;10.868;2023-07-30T02:29:39;95821.91;;;16.27;100.00
16834;BME280;8533;48.426;10.868;2023-07-30T02:32:04;95702.88;;;15.45;100.00
16834;BME280;8533;48.426;10.868;2023-07-30T02:34:30;95742.06;;;15.70;100.00
16834;BME280;8533;48.426;10.868;2023-07-30T02:36:55;95824.84;;;16.25;100.00
16834;BME280;8533;48.426;10.868;2023-07-30T02:39:20;95821.41;;;16.25;100.00
16834;BME280;8533;48.426;10.868;2023-07-30T02:41:46;95824.84;;;16.25;100.00
16834;BME280;8533;48.426;10.868;2023-07-30T02:44:11;95887.69;;;16.61;100.00
16834;BME280;8533;48.426;10.868;2023-07-30T02:46:36;95842.09;;;16.36;100.00
16834;BME280;8533;48.426;10.868;2023-07-30T02:49:02;95716.84;;;15.64;100.00
16834;BME280;8533;48.426;10.868;2023-07-30T02:51:27;95741.13;;;15.80;100.00
16834;BME280;8533;48.426;10.868;2023-07-30T02:53:52;95754.81;;;15.82;100.00
16834;BME280;8533;48.426;10.868;2023-07-30T02:56:21;95876.09;;;16.57;100.00
16834;BME280;8533;48.426;10.868;2023-07-30T02:58:46;95801.34;;;16.10;100.00
16834;BME280;8533;48.426;10.868;2023-07-30T03:01:11;95838.38;;;16.37;100.00
16834;BME280;8533;48.426;10.868;2023-07-30T03:03:36;95868.50;;;16.36;100.00
16834;BME280;8533;48.426;10.868;2023-07-30T03:06:02;95846.88;;;16.34;100.00
16834;BME280;8533;48.426;10.868;2023-07-30T03:08:27;95776.91;;;15.86;100.00
16834;BME280;8533;48.426;10.868;2023-07-30T03:10:52;95731.47;;;15.56;100.00
16834;BME280;8533;48.426;10.868;2023-07-30T03:13:18;95710.63;;;15.36;100.00
16834;BME280;8533;48.426;10.868;2023-07-30T03:15:43;95804.72;;;15.97;100.00
16834;BME280;8533;48.426;10.868;2023-07-30T03:18:08;95810.56;;;15.94;100.00
16834;BME280;8533;48.426;10.868;2023-07-30T03:20:34;95842.34;;;16.21;100.00
16834;BME280;8533;48.426;10.868;2023-07-30T03:22:59;95804.06;;;15.86;100.00
16834;BME280;8533;48.426;10.868;2023-07-30T03:25:24;95837.28;;;16.06;100.00
16834;BME280;8533;48.426;10.868;2023-07-30T03:27:49;95804.91;;;15.82;100.00
16834;BME280;8533;48.426;10.868;2023-07-30T03:30:15;95818.56;;;15.89;100.00
16834;BME280;8533;48.426;10.868;2023-07-30T03:32:40;95839.06;;;15.92;100.00
16834;BME280;8533;48.426;10.868;2023-07-30T03:35:06;95777.88;;;15.52;100.00
16834;BME280;8533;48.426;10.868;2023-07-30T03:37:31;95802.78;;;15.65;100.00
16834;BME280;8533;48.426;10.868;2023-07-30T03:39:56;95856.88;;;16.00;100.00
16834;BME280;8533;48.426;10.868;2023-07-30T03:42:22;95851.97;;;15.93;100.00
16834;BME280;8533;48.426;10.868;2023-07-30T03:44:47;95829.28;;;15.74;100.00
16834;BME280;8533;48.426;10.868;2023-07-30T03:47:12;95848.13;;;15.86;100.00
16834;BME280;8533;48.426;10.868;2023-07-30T03:49:38;95832.16;;;15.77;100.00
16834;BME280;8533;48.426;10.868;2023-07-30T03:52:03;95765.19;;;15.36;100.00
16834;BME280;8533;48.426;10.868;2023-07-30T03:54:28;95735.47;;;15.11;100.00
16834;BME280;8533;48.426;10.868;2023-07-30T03:56:54;95864.09;;;15.94;100.00
16834;BME280;8533;48.426;10.868;2023-07-30T03:59:19;95799.25;;;15.51;100.00
16834;BME280;8533;48.426;10.868;2023-07-30T04:01:44;95866.03;;;15.89;100.00
16834;BME280;8533;48.426;10.868;2023-07-30T04:04:10;95821.88;;;15.57;100.00
16834;BME280;8533;48.426;10.868;2023-07-30T04:06:35;95824.03;;;15.55;100.00
16834;BME280;8533;48.426;10.868;2023-07-30T04:09:00;95843.41;;;15.64;100.00
16834;BME280;8533;48.426;10.868;2023-07-30T04:11:25;95811.22;;;15.43;100.00
16834;BME280;8533;48.426;10.868;2023-07-30T04:13:51;95757.84;;;15.14;100.00
16834;BME280;8533;48.426;10.868;2023-07-30T04:16:16;95866.03;;;15.89;100.00
16834;BME280;8533;48.426;10.868;2023-07-30T04:18:41;95835.66;;;15.73;100.00
16834;BME280;8533;48.426;10.868;2023-07-30T04:21:07;95842.19;;;15.75;100.00
16834;BME280;8533;48.426;10.868;2023-07-30T04:23:32;95786.28;;;15.36;100.00
16834;BME280;8533;48.426;10.868;2023-07-30T04:25:57;95858.25;;;15.79;100.00
16834;BME280;8533;48.426;10.868;2023-07-30T04:28:22;95829.50;;;15.58;100.00
16834;BME280;8533;48.426;10.868;2023-07-30T04:30:48;95899.88;;;16.00;100.00
16834;BME280;8533;48.426;10.868;2023-07-30T04:33:13;95883.41;;;15.90;100.00
16834;BME280;8533;48.426;10.868;2023-07-30T04:35:40;95864.06;;;15.76;100.00
16834;BME280;8533;48.426;10.868;2023-07-30T04:38:05;95787.69;;;15.28;100.00
16834;BME280;8533;48.426;10.868;2023-07-30T04:40:30;95779.41;;;15.16;100.00
16834;BME280;8533;48.426;10.868;2023-07-30T04:42:56;95840.56;;;15.60;100.00
16834;BME280;8533;48.426;10.868;2023-07-30T04:45:21;95905.59;;;16.08;100.00
16834;BME280;8533;48.426;10.868;2023-07-30T04:47:46;95909.72;;;16.14;100.00
16834;BME280;8533;48.426;10.868;2023-07-30T04:50:12;95858.16;;;15.84;100.00
16834;BME280;8533;48.426;10.868;2023-07-30T04:52:38;95902.25;;;16.21;100.00
16834;BME280;8533;48.426;10.868;2023-07-30T04:55:03;95850.41;;;15.92;100.00
16834;BME280;8533;48.426;10.868;2023-07-30T04:57:28;95874.34;;;16.15;100.00
16834;BME280;8533;48.426;10.868;2023-07-30T04:59:54;95856.47;;;15.93;100.00
16834;BME280;8533;48.426;10.868;2023-07-30T05:02:19;95728.84;;;15.14;100.00
16834;BME280;8533;48.426;10.868;2023-07-30T05:04:44;95843.78;;;15.95;100.00
16834;BME280;8533;48.426;10.868;2023-07-30T05:07:10;95927.13;;;16.52;100.00
16834;BME280;8533;48.426;10.868;2023-07-30T05:09:36;95925.75;;;16.55;100.00
16834;BME280;8533;48.426;10.868;2023-07-30T05:12:01;95810.91;;;15.87;100.00
16834;BME280;8533;48.426;10.868;2023-07-30T05:14:26;95934.78;;;16.54;100.00
16834;BME280;8533;48.426;10.868;2023-07-30T05:16:52;95895.31;;;16.44;100.00
16834;BME280;8533;48.426;10.868;2023-07-30T05:19:17;95865.34;;;16.34;100.00
16834;BME280;8533;48.426;10.868;2023-07-30T05:21:42;95891.94;;;16.57;100.00
16834;BME280;8533;48.426;10.868;2023-07-30T05:24:08;95789.28;;;16.04;100.00
16834;BME280;8533;48.426;10.868;2023-07-30T05:26:33;95872.81;;;16.65;100.00
16834;BME280;8533;48.426;10.868;2023-07-30T05:28:58;95895.19;;;16.86;100.00
16834;BME280;8533;48.426;10.868;2023-07-30T05:31:24;95881.94;;;16.72;100.00
16834;BME280;8533;48.426;10.868;2023-07-30T05:33:49;95913.31;;;17.06;100.00
16834;BME280;8533;48.426;10.868;2023-07-30T05:36:14;95833.66;;;16.53;100.00
16834;BME280;8533;48.426;10.868;2023-07-30T05:38:40;95800.94;;;16.35;100.00
16834;BME280;8533;48.426;10.868;2023-07-30T05:41:05;95942.91;;;17.22;100.00
16834;BME280;8533;48.426;10.868;2023-07-30T05:43:30;95909.72;;;17.02;100.00
16834;BME280;8533;48.426;10.868;2023-07-30T05:45:55;95868.66;;;16.77;100.00
16834;BME280;8533;48.426;10.868;2023-07-30T05:48:21;95875.41;;;16.84;100.00
16834;BME280;8533;48.426;10.868;2023-07-30T05:50:46;95927.34;;;17.21;100.00
16834;BME280;8533;48.426;10.868;2023-07-30T05:53:11;95867.78;;;16.82;100.00
16834;BME280;8533;48.426;10.868;2023-07-30T05:55:36;95913.72;;;17.27;100.00
16834;BME280;8533;48.426;10.868;2023-07-30T05:58:02;95878.28;;;17.14;100.00
16834;BME280;8533;48.426;10.868;2023-07-30T06:00:27;95889.47;;;17.25;100.00
16834;BME280;8533;48.426;10.868;2023-07-30T06:02:52;95908.97;;;17.43;100.00
16834;BME280;8533;48.426;10.868;2023-07-30T06:05:18;95890.06;;;17.49;100.00
16834;BME280;8533;48.426;10.868;2023-07-30T06:07:43;95878.19;;;17.47;100.00
16834;BME280;8533;48.426;10.868;2023-07-30T06:10:08;95886.34;;;17.64;100.00
16834;BME280;8533;48.426;10.868;2023-07-30T06:12:34;95911.22;;;17.90;100.00
16834;BME280;8533;48.426;10.868;2023-07-30T06:14:59;95853.34;;;17.62;100.00
16834;BME280;8533;48.426;10.868;2023-07-30T06:17:24;95884.25;;;17.88;100.00
16834;BME280;8533;48.426;10.868;2023-07-30T06:19:50;95851.75;;;17.74;100.00
16834;BME280;8533;48.426;10.868;2023-07-30T06:22:15;95927.69;;;18.37;100.00
16834;BME280;8533;48.426;10.868;2023-07-30T06:24:40;95866.97;;;18.05;100.00
16834;BME280;8533;48.426;10.868;2023-07-30T06:27:06;95884.94;;;18.30;100.00
16834;BME280;8533;48.426;10.868;2023-07-30T06:29:31;95889.53;;;18.38;100.00
16834;BME280;8533;48.426;10.868;2023-07-30T06:31:57;95863.63;;;18.35;100.00
16834;BME280;8533;48.426;10.868;2023-07-30T06:34:22;95660.31;;;16.98;100.00
16834;BME280;8533;48.426;10.868;2023-07-30T06:36:47;95920.16;;;18.89;100.00
16834;BME280;8533;48.426;10.868;2023-07-30T06:39:13;95932.22;;;18.81;100.00
16834;BME280;8533;48.426;10.868;2023-07-30T06:41:38;95909.66;;;18.84;100.00
16834;BME280;8533;48.426;10.868;2023-07-30T06:44:03;95817.03;;;18.12;100.00
16834;BME280;8533;48.426;10.868;2023-07-30T06:46:28;95931.09;;;18.96;100.00
16834;BME280;8533;48.426;10.868;2023-07-30T06:48:54;95928.91;;;18.98;100.00
16834;BME280;8533;48.426;10.868;2023-07-30T06:51:19;95925.16;;;18.99;100.00
16834;BME280;8533;48.426;10.868;2023-07-30T06:53:45;95963.22;;;19.25;100.00
16834;BME280;8533;48.426;10.868;2023-07-30T06:56:11;95917.56;;;19.06;100.00
16834;BME280;8533;48.426;10.868;2023-07-30T06:58:36;95905.63;;;19.17;100.00
16834;BME280;8533;48.426;10.868;2023-07-30T07:01:01;95922.09;;;19.36;100.00
16834;BME280;8533;48.426;10.868;2023-07-30T07:03:26;95895.84;;;19.26;100.00
16834;BME280;8533;48.426;10.868;2023-07-30T07:05:55;95873.38;;;19.32;100.00
16834;BME280;8533;48.426;10.868;2023-07-30T07:08:21;95930.41;;;19.83;100.00
16834;BME280;8533;48.426;10.868;2023-07-30T07:10:47;95818.63;;;19.28;100.00
16834;BME280;8533;48.426;10.868;2023-07-30T07:13:13;95855.41;;;19.60;100.00
16834;BME280;8533;48.426;10.868;2023-07-30T07:15:41;95946.25;;;20.23;100.00
16834;BME280;8533;48.426;10.868;2023-07-30T07:18:06;95939.38;;;20.22;100.00
16834;BME280;8533;48.426;10.868;2023-07-30T07:20:31;95917.66;;;20.19;100.00
16834;BME280;8533;48.426;10.868;2023-07-30T07:22:57;95892.03;;;20.24;100.00
16834;BME280;8533;48.426;10.868;2023-07-30T07:25:22;95916.00;;;20.58;100.00
16834;BME280;8533;48.426;10.868;2023-07-30T07:27:47;95950.38;;;20.89;100.00
16834;BME280;8533;48.426;10.868;2023-07-30T07:30:13;95908.16;;;20.62;100.00
16834;BME280;8533;48.426;10.868;2023-07-30T07:32:38;95867.50;;;20.61;100.00
16834;BME280;8533;48.426;10.868;2023-07-30T07:35:04;95946.25;;;21.09;100.00
16834;BME280;8533;48.426;10.868;2023-07-30T07:37:31;95961.41;;;21.34;100.00
16834;BME280;8533;48.426;10.868;2023-07-30T07:39:57;95921.38;;;21.22;100.00
16834;BME280;8533;48.426;10.868;2023-07-30T07:42:22;95848.88;;;20.78;100.00
16834;BME280;8533;48.426;10.868;2023-07-30T07:44:47;95910.19;;;21.46;100.00
16834;BME280;8533;48.426;10.868;2023-07-30T07:47:13;95922.34;;;21.55;100.00
16834;BME280;8533;48.426;10.868;2023-07-30T07:49:38;95930.09;;;21.78;100.00
16834;BME280;8533;48.426;10.868;2023-07-30T07:52:04;95777.16;;;20.99;100.00
16834;BME280;8533;48.426;10.868;2023-07-30T07:54:29;95876.91;;;21.60;100.00
16834;BME280;8533;48.426;10.868;2023-07-30T07:56:54;95950.19;;;22.25;100.00
16834;BME280;8533;48.426;10.868;2023-07-30T07:59:20;95894.03;;;22.10;100.00
16834;BME280;8533;48.426;10.868;2023-07-30T08:01:45;95915.03;;;22.53;100.00
16834;BME280;8533;48.426;10.868;2023-07-30T08:04:10;95825.22;;;22.12;100.00
16834;BME280;8533;48.426;10.868;2023-07-30T08:06:36;95956.75;;;22.78;100.00
16834;BME280;8533;48.426;10.868;2023-07-30T08:09:01;95912.66;;;22.72;99.87
16834;BME280;8533;48.426;10.868;2023-07-30T08:11:27;95810.50;;;22.26;98.89
16834;BME280;8533;48.426;10.868;2023-07-30T08:13:52;95968.16;;;23.32;93.75
16834;BME280;8533;48.426;10.868;2023-07-30T08:16:17;95932.38;;;23.00;96.13
16834;BME280;8533;48.426;10.868;2023-07-30T08:18:43;95942.72;;;23.02;100.00
16834;BME280;8533;48.426;10.868;2023-07-30T08:21:08;95879.53;;;22.61;92.85
16834;BME280;8533;48.426;10.868;2023-07-30T08:23:34;96002.16;;;23.23;94.08
16834;BME280;8533;48.426;10.868;2023-07-30T08:25:59;95900.59;;;23.07;93.36
16834;BME280;8533;48.426;10.868;2023-07-30T08:28:24;95954.66;;;23.62;93.83
16834;BME280;8533;48.426;10.868;2023-07-30T08:30:50;95720.00;;;22.30;88.78
16834;BME280;8533;48.426;10.868;2023-07-30T08:33:15;95877.22;;;23.49;89.83
16834;BME280;8533;48.426;10.868;2023-07-30T08:35:40;95815.97;;;23.20;85.38
16834;BME280;8533;48.426;10.868;2023-07-30T08:38:06;95788.59;;;23.47;86.19
16834;BME280;8533;48.426;10.868;2023-07-30T08:40:31;95870.03;;;24.02;81.66
16834;BME280;8533;48.426;10.868;2023-07-30T08:42:57;95980.56;;;24.58;80.81
16834;BME280;8533;48.426;10.868;2023-07-30T08:45:22;95917.88;;;24.19;82.78
16834;BME280;8533;48.426;10.868;2023-07-30T08:47:48;95912.81;;;23.78;83.64
16834;BME280;8533;48.426;10.868;2023-07-30T08:50:13;95851.25;;;22.80;86.87
16834;BME280;8533;48.426;10.868;2023-07-30T08:52:39;95834.28;;;22.97;87.37
16834;BME280;8533;48.426;10.868;2023-07-30T08:55:06;95920.72;;;23.62;81.79
16834;BME280;8533;48.426;10.868;2023-07-30T08:57:32;95953.66;;;24.27;79.98
16834;BME280;8533;48.426;10.868;2023-07-30T09:00:06;95858.13;;;24.00;75.83
16834;BME280;8533;48.426;10.868;2023-07-30T09:02:51;95905.19;;;24.68;74.85
16834;BME280;8533;48.426;10.868;2023-07-30T09:05:18;95955.09;;;25.32;73.73
16834;BME280;8533;48.426;10.868;2023-07-30T09:07:44;95845.28;;;25.01;72.02
16834;BME280;8533;48.426;10.868;2023-07-30T09:10:09;95800.28;;;24.91;69.30
16834;BME280;8533;48.426;10.868;2023-07-30T09:12:35;95746.19;;;24.38;68.69
16834;BME280;8533;48.426;10.868;2023-07-30T09:15:02;95814.44;;;25.07;69.60
16834;BME280;8533;48.426;10.868;2023-07-30T09:17:29;95706.59;;;24.44;69.33
16834;BME280;8533;48.426;10.868;2023-07-30T09:19:55;95970.19;;;25.84;71.13
16834;BME280;8533;48.426;10.868;2023-07-30T09:22:27;95765.38;;;24.56;67.94
16834;BME280;8533;48.426;10.868;2023-07-30T09:24:54;95813.38;;;24.37;72.10
16834;BME280;8533;48.426;10.868;2023-07-30T09:27:24;95816.50;;;23.86;76.48
16834;BME280;8533;48.426;10.868;2023-07-30T09:29:54;95869.00;;;24.31;74.68
16834;BME280;8533;48.426;10.868;2023-07-30T09:32:24;95833.91;;;23.56;75.84
16834;BME280;8533;48.426;10.868;2023-07-30T09:34:50;95807.28;;;23.47;75.99
16834;BME280;8533;48.426;10.868;2023-07-30T09:37:16;95928.38;;;24.00;73.15
16834;BME280;8533;48.426;10.868;2023-07-30T09:39:42;95848.94;;;23.48;72.92
16834;BME280;8533;48.426;10.868;2023-07-30T09:42:07;95580.78;;;21.43;73.36
16834;BME280;8533;48.426;10.868;2023-07-30T09:44:33;95936.97;;;23.81;71.38
16834;BME280;8533;48.426;10.868;2023-07-30T09:46:58;95904.78;;;23.53;74.53
16834;BME280;8533;48.426;10.868;2023-07-30T09:49:24;95951.66;;;23.87;75.27
16834;BME280;8533;48.426;10.868;2023-07-30T09:51:50;95924.50;;;23.73;73.34
16834;BME280;8533;48.426;10.868;2023-07-30T09:54:16;95870.78;;;23.05;71.33
16834;BME280;8533;48.426;10.868;2023-07-30T09:56:42;95855.78;;;23.01;74.26
16834;BME280;8533;48.426;10.868;2023-07-30T09:59:09;95783.38;;;22.78;77.24
16834;BME280;8533;48.426;10.868;2023-07-30T10:01:55;95957.34;;;23.86;73.36
16834;BME280;8533;48.426;10.868;2023-07-30T10:04:21;95875.69;;;23.15;72.87
16834;BME280;8533;48.426;10.868;2023-07-30T10:07:02;95966.16;;;22.75;82.53
16834;BME280;8533;48.426;10.868;2023-07-30T10:09:30;95891.22;;;21.47;96.56
16834;BME280;8533;48.426;10.868;2023-07-30T10:11:59;95854.53;;;19.99;100.00
16834;BME280;8533;48.426;10.868;2023-07-30T10:14:25;95868.72;;;19.29;100.00
16834;BME280;8533;48.426;10.868;2023-07-30T10:16:59;95802.66;;;18.04;100.00
16834;BME280;8533;48.426;10.868;2023-07-30T10:19:26;95979.41;;;18.71;100.00
16834;BME280;8533;48.426;10.868;2023-07-30T10:24:39;96025.88;;;18.27;100.00
16834;BME280;8533;48.426;10.868;2023-07-30T10:27:08;96037.75;;;18.16;100.00
16834;BME280;8533;48.426;10.868;2023-07-30T10:29:39;95990.50;;;17.82;100.00
16834;BME280;8533;48.426;10.868;2023-07-30T10:32:07;96029.50;;;18.17;100.00
16834;BME280;8533;48.426;10.868;2023-07-30T10:34:46;96030.09;;;18.28;100.00
16834;BME280;8533;48.426;10.868;2023-07-30T10:37:18;95894.38;;;17.59;100.00
16834;BME280;8533;48.426;10.868;2023-07-30T10:39:48;95980.25;;;18.80;100.00
16834;BME280;8533;48.426;10.868;2023-07-30T10:42:13;95881.44;;;18.43;100.00
16834;BME280;8533;48.426;10.868;2023-07-30T10:44:43;95794.06;;;18.74;100.00
16834;BME280;8533;48.426;10.868;2023-07-30T10:47:09;95822.53;;;18.91;100.00
16834;BME280;8533;48.426;10.868;2023-07-30T10:49:38;95864.50;;;19.28;100.00
16834;BME280;8533;48.426;10.868;2023-07-30T10:52:04;96014.13;;;19.89;100.00
16834;BME280;8533;48.426;10.868;2023-07-30T10:54:33;95852.47;;;18.60;100.00
16834;BME280;8533;48.426;10.868;2023-07-30T10:56:59;96022.72;;;19.95;100.00
16834;BME280;8533;48.426;10.868;2023-07-30T10:59:25;95956.34;;;19.86;100.00
16834;BME280;8533;48.426;10.868;2023-07-30T11:01:52;96002.03;;;20.14;100.00
16834;BME280;8533;48.426;10.868;2023-07-30T11:04:19;95837.06;;;18.49;100.00
16834;BME280;8533;48.426;10.868;2023-07-30T11:06:49;95986.72;;;20.28;100.00
16834;BME280;8533;48.426;10.868;2023-07-30T11:09:25;96018.53;;;20.50;100.00
16834;BME280;8533;48.426;10.868;2023-07-30T11:11:53;95969.59;;;20.77;100.00
16834;BME280;8533;48.426;10.868;2023-07-30T11:14:20;96011.34;;;21.03;100.00
16834;BME280;8533;48.426;10.868;2023-07-30T11:16:50;96011.41;;;21.66;100.00
16834;BME280;8533;48.426;10.868;2023-07-30T11:19:16;96002.75;;;21.14;100.00
16834;BME280;8533;48.426;10.868;2023-07-30T11:21:50;96006.56;;;21.60;100.00
16834;BME280;8533;48.426;10.868;2023-07-30T11:24:15;95830.16;;;20.66;100.00
16834;BME280;8533;48.426;10.868;2023-07-30T11:26:42;95967.84;;;22.09;100.00
16834;BME280;8533;48.426;10.868;2023-07-30T11:29:17;95839.59;;;21.90;100.00
16834;BME280;8533;48.426;10.868;2023-07-30T11:31:46;95967.59;;;23.27;100.00
16834;BME280;8533;48.426;10.868;2023-07-30T11:34:13;95783.88;;;21.35;100.00
16834;BME280;8533;48.426;10.868;2023-07-30T11:36:40;95999.22;;;22.83;100.00
16834;BME280;8533;48.426;10.868;2023-07-30T11:39:07;95847.72;;;21.43;100.00
16834;BME280;8533;48.426;10.868;2023-07-30T11:41:33;96058.09;;;22.19;100.00
16834;BME280;8533;48.426;10.868;2023-07-30T11:43:58;95935.00;;;21.20;100.00
16834;BME280;8533;48.426;10.868;2023-07-30T11:46:24;95927.63;;;21.09;100.00
16834;BME280;8533;48.426;10.868;2023-07-30T11:48:51;95911.91;;;21.42;100.00
16834;BME280;8533;48.426;10.868;2023-07-30T11:51:27;96027.41;;;22.13;100.00
16834;BME280;8533;48.426;10.868;2023-07-30T11:53:54;95876.41;;;21.38;100.00
16834;BME280;8533;48.426;10.868;2023-07-30T11:56:24;96019.34;;;22.51;100.00
16834;BME280;8533;48.426;10.868;2023-07-30T11:58:53;96034.78;;;22.87;100.00
16834;BME280;8533;48.426;10.868;2023-07-30T12:01:19;96023.97;;;23.04;98.58
16834;BME280;8533;48.426;10.868;2023-07-30T12:03:45;95956.28;;;22.76;97.33
16834;BME280;8533;48.426;10.868;2023-07-30T12:06:11;96021.09;;;23.63;87.45
16834;BME280;8533;48.426;10.868;2023-07-30T12:08:36;95824.75;;;21.89;94.89
16834;BME280;8533;48.426;10.868;2023-07-30T12:11:06;96022.81;;;23.47;87.00
16834;BME280;8533;48.426;10.868;2023-07-30T12:13:32;95876.97;;;22.85;90.65
16834;BME280;8533;48.426;10.868;2023-07-30T12:15:58;95801.81;;;22.83;82.75
16834;BME280;8533;48.426;10.868;2023-07-30T12:18:25;95995.72;;;23.36;85.41
16834;BME280;8533;48.426;10.868;2023-07-30T12:20:51;96042.44;;;23.51;85.41
16834;BME280;8533;48.426;10.868;2023-07-30T12:23:17;95864.88;;;22.13;87.03
16834;BME280;8533;48.426;10.868;2023-07-30T12:25:43;96043.38;;;22.42;97.08
16834;BME280;8533;48.426;10.868;2023-07-30T12:28:09;96063.34;;;21.98;99.88
16834;BME280;8533;48.426;10.868;2023-07-30T12:30:35;96046.44;;;21.86;100.00
16834;BME280;8533;48.426;10.868;2023-07-30T12:33:04;96020.91;;;21.21;100.00
16834;BME280;8533;48.426;10.868;2023-07-30T12:35:31;95952.41;;;20.66;100.00
16834;BME280;8533;48.426;10.868;2023-07-30T12:37:57;95930.06;;;20.50;100.00
16834;BME280;8533;48.426;10.868;2023-07-30T12:40:23;95880.50;;;20.45;100.00
16834;BME280;8533;48.426;10.868;2023-07-30T12:42:48;96007.25;;;21.95;99.58
16834;BME280;8533;48.426;10.868;2023-07-30T12:45:14;95880.44;;;21.44;89.92
16834;BME280;8533;48.426;10.868;2023-07-30T12:47:40;95880.31;;;22.40;85.02
16834;BME280;8533;48.426;10.868;2023-07-30T12:50:06;95932.00;;;23.47;79.99